sensor_id;sensor_type;location;lat;lon;timestamp;P1;durP1;ratioP1;P2;durP2;ratioP2
7169;SDS011;3626;42.656;23.312;2023-04-22T00:00:06;17.77;;;9.37;;
7169;SDS011;3626;42.656;23.312;2023-04-22T00:00:13;16.68;;;9.60;;
7169;SDS011;3626;42.656;23.312;2023-04-22T00:00:19;16.38;;;9.58;;
7169;SDS011;3626;42.656;23.312;2023-04-22T00:00:25;16.27;;;9.50;;
7169;SDS011;3626;42.656;23.312;2023-04-22T00:00:32;16.53;;;9.70;;
7169;SDS011;3626;42.656;23.312;2023-04-22T00:00:39;16.97;;;9.80;;
7169;SDS011;3626;42.656;23.312;2023-04-22T00:00:46;17.54;;;9.90;;
7169;SDS011;3626;42.656;23.312;2023-04-22T00:00:52;18.17;;;9.90;;
7169;SDS011;3626;42.656;23.312;2023-04-22T00:00:58;19.00;;;9.90;;
7169;SDS011;3626;42.656;23.312;2023-04-22T00:01:05;19.17;;;9.70;;
7169;SDS011;3626;42.656;23.312;2023-04-22T00:01:11;19.10;;;9.60;;
7169;SDS011;3626;42.656;23.312;2023-04-22T00:01:17;19.02;;;9.45;;
7169;SDS011;3626;42.656;23.312;2023-04-22T00:01:23;18.66;;;9.48;;
7169;SDS011;3626;42.656;23.312;2023-04-22T00:01:29;18.58;;;9.57;;
7169;SDS011;3626;42.656;23.312;2023-04-22T00:01:35;18.30;;;9.47;;
7169;SDS011;3626;42.656;23.312;2023-04-22T00:01:40;17.55;;;9.30;;
7169;SDS011;3626;42.656;23.312;2023-04-22T00:01:46;17.40;;;9.48;;
7169;SDS011;3626;42.656;23.312;2023-04-22T00:01:52;16.65;;;9.50;;
7169;SDS011;3626;42.656;23.312;2023-04-22T00:01:59;16.62;;;9.66;;
7169;SDS011;3626;42.656;23.312;2023-04-22T00:02:05;16.90;;;9.85;;
7169;SDS011;3626;42.656;23.312;2023-04-22T00:02:11;17.63;;;10.00;;
7169;SDS011;3626;42.656;23.312;2023-04-22T00:02:18;17.88;;;10.06;;
7169;SDS011;3626;42.656;23.312;2023-04-22T00:02:26;18.38;;;10.10;;
7169;SDS011;3626;42.656;23.312;2023-04-22T00:02:33;18.80;;;9.96;;
7169;SDS011;3626;42.656;23.312;2023-04-22T00:02:41;18.87;;;10.10;;
7169;SDS011;3626;42.656;23.312;2023-04-22T00:02:47;19.10;;;9.80;;
7169;SDS011;3626;42.656;23.312;2023-04-22T00:02:53;19.30;;;9.90;;
7169;SDS011;3626;42.656;23.312;2023-04-22T00:03:01;19.38;;;9.82;;
7169;SDS011;3626;42.656;23.312;2023-04-22T00:03:08;18.72;;;9.68;;
7169;SDS011;3626;42.656;23.312;2023-04-22T00:03:14;18.17;;;9.45;;
7169;SDS011;3626;42.656;23.312;2023-04-22T00:03:19;18.02;;;9.30;;
7169;SDS011;3626;42.656;23.312;2023-04-22T00:03:26;17.93;;;9.50;;
7169;SDS011;3626;42.656;23.312;2023-04-22T00:03:32;18.03;;;9.70;;
7169;SDS011;3626;42.656;23.312;2023-04-22T00:03:39;18.27;;;9.80;;
7169;SDS011;3626;42.656;23.312;2023-04-22T00:03:46;18.70;;;9.96;;
7169;SDS011;3626;42.656;23.312;2023-04-22T00:03:51;18.33;;;9.97;;
7169;SDS011;3626;42.656;23.312;2023-04-22T00:03:57;17.83;;;10.00;;
7169;SDS011;3626;42.656;23.312;2023-04-22T00:04:03;17.38;;;9.90;;
7169;SDS011;3626;42.656;23.312;2023-04-22T00:04:09;16.70;;;9.80;;
7169;SDS011;3626;42.656;23.312;2023-04-22T00:04:15;16.35;;;9.88;;
7169;SDS011;3626;42.656;23.312;2023-04-22T00:04:21;16.50;;;9.82;;
7169;SDS011;3626;42.656;23.312;2023-04-22T00:04:27;16.13;;;9.52;;
7169;SDS011;3626;42.656;23.312;2023-04-22T00:04:33;15.67;;;9.37;;
7169;SDS011;3626;42.656;23.312;2023-04-22T00:04:39;15.07;;;9.15;;
7169;SDS011;3626;42.656;23.312;2023-04-22T00:04:45;14.27;;;9.00;;
7169;SDS011;3626;42.656;23.312;2023-04-22T00:04:51;14.68;;;9.00;;
7169;SDS011;3626;42.656;23.312;2023-04-22T00:04:57;14.63;;;8.90;;
7169;SDS011;3626;42.656;23.312;2023-04-22T00:05:03;15.10;;;8.90;;
7169;SDS011;3626;42.656;23.312;2023-04-22T00:05:11;15.85;;;8.98;;
7169;SDS011;3626;42.656;23.312;2023-04-22T00:05:17;17.23;;;9.05;;
7169;SDS011;3626;42.656;23.312;2023-04-22T00:05:23;16.70;;;9.07;;
7169;SDS011;3626;42.656;23.312;2023-04-22T00:05:29;17.35;;;8.98;;
7169;SDS011;3626;42.656;23.312;2023-04-22T00:05:35;18.35;;;9.00;;
7169;SDS011;3626;42.656;23.312;2023-04-22T00:05:41;18.60;;;9.10;;
7169;SDS011;3626;42.656;23.312;2023-04-22T00:05:48;18.23;;;9.00;;
7169;SDS011;3626;42.656;23.312;2023-04-22T00:05:54;18.15;;;8.98;;
7169;SDS011;3626;42.656;23.312;2023-04-22T00:06:00;18.73;;;9.20;;
7169;SDS011;3626;42.656;23.312;2023-04-22T00:06:06;19.35;;;9.52;;
7169;SDS011;3626;42.656;23.312;2023-04-22T00:06:12;18.00;;;9.43;;
7169;SDS011;3626;42.656;23.312;2023-04-22T00:06:18;17.80;;;9.30;;
7169;SDS011;3626;42.656;23.312;2023-04-22T00:06:24;17.63;;;9.23;;
7169;SDS011;3626;42.656;23.312;2023-04-22T00:06:31;16.30;;;9.43;;
7169;SDS011;3626;42.656;23.312;2023-04-22T00:06:37;15.82;;;9.40;;
7169;SDS011;3626;42.656;23.312;2023-04-22T00:06:43;15.65;;;9.40;;
7169;SDS011;3626;42.656;23.312;2023-04-22T00:06:49;15.75;;;9.35;;
7169;SDS011;3626;42.656;23.312;2023-04-22T00:06:55;15.73;;;9.25;;
7169;SDS011;3626;42.656;23.312;2023-04-22T00:07:01;14.95;;;8.95;;
7169;SDS011;3626;42.656;23.312;2023-04-22T00:07:07;14.15;;;8.70;;
7169;SDS011;3626;42.656;23.312;2023-04-22T00:07:13;14.65;;;8.80;;
7169;SDS011;3626;42.656;23.312;2023-04-22T00:07:19;15.13;;;9.00;;
7169;SDS011;3626;42.656;23.312;2023-04-22T00:07:25;15.18;;;9.07;;
7169;SDS011;3626;42.656;23.312;2023-04-22T00:07:31;14.90;;;8.90;;
7169;SDS011;3626;42.656;23.312;2023-04-22T00:07:37;15.15;;;8.80;;
7169;SDS011;3626;42.656;23.312;2023-04-22T00:07:43;16.00;;;8.93;;
7169;SDS011;3626;42.656;23.312;2023-04-22T00:07:49;15.75;;;8.95;;
7169;SDS011;3626;42.656;23.312;2023-04-22T00:07:55;15.40;;;8.75;;
7169;SDS011;3626;42.656;23.312;2023-04-22T00:08:02;15.50;;;8.84;;
7169;SDS011;3626;42.656;23.312;2023-04-22T00:08:08;15.40;;;8.82;;
7169;SDS011;3626;42.656;23.312;2023-04-22T00:08:14;15.00;;;8.80;;
7169;SDS011;3626;42.656;23.312;2023-04-22T00:08:19;14.68;;;8.77;;
7169;SDS011;3626;42.656;23.312;2023-04-22T00:08:25;15.00;;;8.73;;
7169;SDS011;3626;42.656;23.312;2023-04-22T00:08:31;15.75;;;8.98;;
7169;SDS011;3626;42.656;23.312;2023-04-22T00:08:37;16.85;;;9.07;;
7169;SDS011;3626;42.656;23.312;2023-04-22T00:08:42;16.58;;;9.07;;
7169;SDS011;3626;42.656;23.312;2023-04-22T00:08:48;16.57;;;9.17;;
7169;SDS011;3626;42.656;23.312;2023-04-22T00:08:54;16.73;;;9.35;;
7169;SDS011;3626;42.656;23.312;2023-04-22T00:09:00;16.73;;;9.45;;
7169;SDS011;3626;42.656;23.312;2023-04-22T00:09:06;16.63;;;9.52;;
7169;SDS011;3626;42.656;23.312;2023-04-22T00:09:11;16.75;;;9.60;;
7169;SDS011;3626;42.656;23.312;2023-04-22T00:09:17;16.38;;;9.32;;
7169;SDS011;3626;42.656;23.312;2023-04-22T00:09:24;16.48;;;9.30;;
7169;SDS011;3626;42.656;23.312;2023-04-22T00:09:30;15.98;;;9.30;;
7169;SDS011;3626;42.656;23.312;2023-04-22T00:09:36;14.82;;;9.20;;
7169;SDS011;3626;42.656;23.312;2023-04-22T00:09:42;14.30;;;9.05;;
7169;SDS011;3626;42.656;23.312;2023-04-22T00:09:48;14.40;;;8.90;;
7169;SDS011;3626;42.656;23.312;2023-04-22T00:09:53;14.15;;;8.82;;
7169;SDS011;3626;42.656;23.312;2023-04-22T00:09:59;14.23;;;8.90;;
7169;SDS011;3626;42.656;23.312;2023-04-22T00:10:06;14.57;;;9.03;;
7169;SDS011;3626;42.656;23.312;2023-04-22T00:10:12;14.50;;;9.07;;
7169;SDS011;3626;42.656;23.312;2023-04-22T00:10:18;14.83;;;9.27;;
7169;SDS011;3626;42.656;23.312;2023-04-22T00:10:26;14.70;;;9.30;;
7169;SDS011;3626;42.656;23.312;2023-04-22T00:10:32;15.00;;;9.20;;
7169;SDS011;3626;42.656;23.312;2023-04-22T00:10:37;14.98;;;9.30;;
7169;SDS011;3626;42.656;23.312;2023-04-22T00:10:43;14.97;;;9.40;;
7169;SDS011;3626;42.656;23.312;2023-04-22T00:10:49;14.40;;;9.30;;
7169;SDS011;3626;42.656;23.312;2023-04-22T00:10:56;14.24;;;9.20;;
7169;SDS011;3626;42.656;23.312;2023-04-22T00:11:02;14.00;;;9.05;;
7169;SDS011;3626;42.656;23.312;2023-04-22T00:11:07;14.27;;;9.02;;
7169;SDS011;3626;42.656;23.312;2023-04-22T00:11:13;14.80;;;8.88;;
7169;SDS011;3626;42.656;23.312;2023-04-22T00:11:19;14.97;;;9.03;;
7169;SDS011;3626;42.656;23.312;2023-04-22T00:11:27;15.16;;;9.08;;
7169;SDS011;3626;42.656;23.312;2023-04-22T00:11:33;15.05;;;9.02;;
7169;SDS011;3626;42.656;23.312;2023-04-22T00:11:39;14.98;;;9.10;;
7169;SDS011;3626;42.656;23.312;2023-04-22T00:11:44;16.20;;;9.35;;
7169;SDS011;3626;42.656;23.312;2023-04-22T00:11:50;16.45;;;9.30;;
7169;SDS011;3626;42.656;23.312;2023-04-22T00:11:56;16.38;;;9.27;;
7169;SDS011;3626;42.656;23.312;2023-04-22T00:12:03;16.08;;;9.10;;
7169;SDS011;3626;42.656;23.312;2023-04-22T00:12:09;15.80;;;9.07;;
7169;SDS011;3626;42.656;23.312;2023-04-22T00:12:15;15.43;;;9.23;;
7169;SDS011;3626;42.656;23.312;2023-04-22T00:12:21;14.97;;;8.93;;
7169;SDS011;3626;42.656;23.312;2023-04-22T00:12:27;14.18;;;8.75;;
7169;SDS011;3626;42.656;23.312;2023-04-22T00:12:34;14.62;;;8.76;;
7169;SDS011;3626;42.656;23.312;2023-04-22T00:12:40;15.32;;;8.77;;
7169;SDS011;3626;42.656;23.312;2023-04-22T00:12:45;14.45;;;8.48;;
7169;SDS011;3626;42.656;23.312;2023-04-22T00:12:51;14.95;;;8.57;;
7169;SDS011;3626;42.656;23.312;2023-04-22T00:12:57;16.00;;;9.00;;
7169;SDS011;3626;42.656;23.312;2023-04-22T00:13:03;17.27;;;9.48;;
7169;SDS011;3626;42.656;23.312;2023-04-22T00:13:08;18.42;;;9.70;;
7169;SDS011;3626;42.656;23.312;2023-04-22T00:13:14;18.88;;;9.68;;
7169;SDS011;3626;42.656;23.312;2023-04-22T00:13:20;18.92;;;9.65;;
7169;SDS011;3626;42.656;23.312;2023-04-22T00:13:26;20.80;;;9.90;;
7169;SDS011;3626;42.656;23.312;2023-04-22T00:13:32;20.83;;;9.90;;
7169;SDS011;3626;42.656;23.312;2023-04-22T00:13:38;20.80;;;9.80;;
7169;SDS011;3626;42.656;23.312;2023-04-22T00:13:43;20.83;;;9.80;;
7169;SDS011;3626;42.656;23.312;2023-04-22T00:13:50;20.47;;;9.90;;
7169;SDS011;3626;42.656;23.312;2023-04-22T00:13:56;20.15;;;9.70;;
7169;SDS011;3626;42.656;23.312;2023-04-22T00:14:01;19.38;;;9.52;;
7169;SDS011;3626;42.656;23.312;2023-04-22T00:14:08;18.26;;;9.10;;
7169;SDS011;3626;42.656;23.312;2023-04-22T00:14:14;19.02;;;9.00;;
7169;SDS011;3626;42.656;23.312;2023-04-22T00:14:20;20.20;;;9.23;;
7169;SDS011;3626;42.656;23.312;2023-04-22T00:14:25;19.27;;;9.30;;
7169;SDS011;3626;42.656;23.312;2023-04-22T00:14:31;18.90;;;9.32;;
7169;SDS011;3626;42.656;23.312;2023-04-22T00:14:37;18.15;;;9.30;;
7169;SDS011;3626;42.656;23.312;2023-04-22T00:14:43;18.92;;;9.40;;
7169;SDS011;3626;42.656;23.312;2023-04-22T00:14:49;19.37;;;9.50;;
7169;SDS011;3626;42.656;23.312;2023-04-22T00:14:55;19.50;;;9.70;;
7169;SDS011;3626;42.656;23.312;2023-04-22T00:15:00;19.50;;;9.63;;
7169;SDS011;3626;42.656;23.312;2023-04-22T00:15:07;19.80;;;9.80;;
7169;SDS011;3626;42.656;23.312;2023-04-22T00:15:13;18.82;;;9.88;;
7169;SDS011;3626;42.656;23.312;2023-04-22T00:15:19;18.33;;;9.90;;
7169;SDS011;3626;42.656;23.312;2023-04-22T00:15:25;18.10;;;9.80;;
7169;SDS011;3626;42.656;23.312;2023-04-22T00:15:32;18.90;;;9.88;;
7169;SDS011;3626;42.656;23.312;2023-04-22T00:15:38;19.45;;;9.70;;
7169;SDS011;3626;42.656;23.312;2023-04-22T00:15:44;19.63;;;9.70;;
7169;SDS011;3626;42.656;23.312;2023-04-22T00:15:50;20.60;;;9.70;;
7169;SDS011;3626;42.656;23.312;2023-04-22T00:15:56;20.05;;;9.48;;
7169;SDS011;3626;42.656;23.312;2023-04-22T00:16:02;19.40;;;9.23;;
7169;SDS011;3626;42.656;23.312;2023-04-22T00:16:08;18.97;;;9.10;;
7169;SDS011;3626;42.656;23.312;2023-04-22T00:16:14;18.95;;;9.15;;
7169;SDS011;3626;42.656;23.312;2023-04-22T00:16:20;17.92;;;8.90;;
7169;SDS011;3626;42.656;23.312;2023-04-22T00:16:26;17.65;;;8.90;;
7169;SDS011;3626;42.656;23.312;2023-04-22T00:16:32;17.70;;;9.00;;
7169;SDS011;3626;42.656;23.312;2023-04-22T00:16:37;17.30;;;9.30;;
7169;SDS011;3626;42.656;23.312;2023-04-22T00:16:44;17.17;;;9.30;;
7169;SDS011;3626;42.656;23.312;2023-04-22T00:16:50;15.88;;;9.23;;
7169;SDS011;3626;42.656;23.312;2023-04-22T00:16:57;15.86;;;9.18;;
7169;SDS011;3626;42.656;23.312;2023-04-22T00:17:03;16.20;;;9.27;;
7169;SDS011;3626;42.656;23.312;2023-04-22T00:17:10;16.12;;;9.30;;
7169;SDS011;3626;42.656;23.312;2023-04-22T00:17:16;16.30;;;9.35;;
7169;SDS011;3626;42.656;23.312;2023-04-22T00:17:22;17.08;;;9.50;;
7169;SDS011;3626;42.656;23.312;2023-04-22T00:17:28;16.50;;;9.30;;
7169;SDS011;3626;42.656;23.312;2023-04-22T00:17:34;16.23;;;9.07;;
7169;SDS011;3626;42.656;23.312;2023-04-22T00:17:40;16.08;;;9.10;;
7169;SDS011;3626;42.656;23.312;2023-04-22T00:17:46;16.27;;;9.10;;
7169;SDS011;3626;42.656;23.312;2023-04-22T00:17:52;17.02;;;9.23;;
7169;SDS011;3626;42.656;23.312;2023-04-22T00:17:58;17.00;;;9.35;;
7169;SDS011;3626;42.656;23.312;2023-04-22T00:18:04;17.23;;;9.27;;
7169;SDS011;3626;42.656;23.312;2023-04-22T00:18:17;17.20;;;9.27;;
7169;SDS011;3626;42.656;23.312;2023-04-22T00:18:23;17.20;;;9.32;;
7169;SDS011;3626;42.656;23.312;2023-04-22T00:18:29;17.15;;;9.38;;
7169;SDS011;3626;42.656;23.312;2023-04-22T00:18:35;17.40;;;9.48;;
7169;SDS011;3626;42.656;23.312;2023-04-22T00:18:40;17.10;;;9.40;;
7169;SDS011;3626;42.656;23.312;2023-04-22T00:18:48;16.70;;;9.45;;
7169;SDS011;3626;42.656;23.312;2023-04-22T00:18:54;16.02;;;9.38;;
7169;SDS011;3626;42.656;23.312;2023-04-22T00:18:59;16.10;;;9.40;;
7169;SDS011;3626;42.656;23.312;2023-04-22T00:19:05;15.63;;;9.32;;
7169;SDS011;3626;42.656;23.312;2023-04-22T00:19:11;15.63;;;9.30;;
7169;SDS011;3626;42.656;23.312;2023-04-22T00:19:17;15.35;;;9.30;;
7169;SDS011;3626;42.656;23.312;2023-04-22T00:19:22;15.10;;;9.20;;
7169;SDS011;3626;42.656;23.312;2023-04-22T00:19:28;15.80;;;9.30;;
7169;SDS011;3626;42.656;23.312;2023-04-22T00:19:34;15.33;;;9.30;;
7169;SDS011;3626;42.656;23.312;2023-04-22T00:19:41;15.00;;;9.23;;
7169;SDS011;3626;42.656;23.312;2023-04-22T00:19:47;14.53;;;9.13;;
7169;SDS011;3626;42.656;23.312;2023-04-22T00:19:54;14.73;;;9.10;;
7169;SDS011;3626;42.656;23.312;2023-04-22T00:20:00;15.57;;;9.23;;
7169;SDS011;3626;42.656;23.312;2023-04-22T00:20:06;15.55;;;9.32;;
7169;SDS011;3626;42.656;23.312;2023-04-22T00:20:14;15.37;;;9.30;;
7169;SDS011;3626;42.656;23.312;2023-04-22T00:20:21;15.10;;;9.20;;
7169;SDS011;3626;42.656;23.312;2023-04-22T00:20:27;14.65;;;9.20;;
7169;SDS011;3626;42.656;23.312;2023-04-22T00:20:33;14.87;;;9.30;;
7169;SDS011;3626;42.656;23.312;2023-04-22T00:20:40;15.08;;;9.32;;
7169;SDS011;3626;42.656;23.312;2023-04-22T00:20:47;15.18;;;9.27;;
7169;SDS011;3626;42.656;23.312;2023-04-22T00:20:53;15.13;;;9.27;;
7169;SDS011;3626;42.656;23.312;2023-04-22T00:20:59;14.82;;;9.27;;
7169;SDS011;3626;42.656;23.312;2023-04-22T00:21:06;14.04;;;9.06;;
7169;SDS011;3626;42.656;23.312;2023-04-22T00:21:12;13.82;;;8.95;;
7169;SDS011;3626;42.656;23.312;2023-04-22T00:21:17;14.32;;;9.00;;
7169;SDS011;3626;42.656;23.312;2023-04-22T00:21:23;14.57;;;8.90;;
7169;SDS011;3626;42.656;23.312;2023-04-22T00:21:29;14.80;;;8.90;;
7169;SDS011;3626;42.656;23.312;2023-04-22T00:21:35;15.07;;;8.82;;
7169;SDS011;3626;42.656;23.312;2023-04-22T00:21:41;15.00;;;8.90;;
7169;SDS011;3626;42.656;23.312;2023-04-22T00:21:46;14.85;;;8.90;;
7169;SDS011;3626;42.656;23.312;2023-04-22T00:21:52;14.67;;;8.77;;
7169;SDS011;3626;42.656;23.312;2023-04-22T00:21:58;14.45;;;8.65;;
7169;SDS011;3626;42.656;23.312;2023-04-22T00:22:05;14.76;;;8.66;;
7169;SDS011;3626;42.656;23.312;2023-04-22T00:22:10;16.25;;;8.82;;
7169;SDS011;3626;42.656;23.312;2023-04-22T00:22:16;16.40;;;8.80;;
7169;SDS011;3626;42.656;23.312;2023-04-22T00:22:22;16.80;;;8.88;;
7169;SDS011;3626;42.656;23.312;2023-04-22T00:22:28;17.63;;;8.95;;
7169;SDS011;3626;42.656;23.312;2023-04-22T00:22:34;18.23;;;8.75;;
7169;SDS011;3626;42.656;23.312;2023-04-22T00:22:40;17.98;;;8.50;;
7169;SDS011;3626;42.656;23.312;2023-04-22T00:22:45;18.02;;;8.50;;
7169;SDS011;3626;42.656;23.312;2023-04-22T00:22:51;18.73;;;8.60;;
7169;SDS011;3626;42.656;23.312;2023-04-22T00:22:57;19.73;;;8.68;;
7169;SDS011;3626;42.656;23.312;2023-04-22T00:23:03;19.75;;;8.80;;
7169;SDS011;3626;42.656;23.312;2023-04-22T00:23:10;19.17;;;8.75;;
7169;SDS011;3626;42.656;23.312;2023-04-22T00:23:16;18.70;;;8.63;;
7169;SDS011;3626;42.656;23.312;2023-04-22T00:23:23;18.20;;;8.80;;
7169;SDS011;3626;42.656;23.312;2023-04-22T00:23:29;18.05;;;8.73;;
7169;SDS011;3626;42.656;23.312;2023-04-22T00:23:35;17.87;;;9.07;;
7169;SDS011;3626;42.656;23.312;2023-04-22T00:23:40;18.83;;;9.38;;
7169;SDS011;3626;42.656;23.312;2023-04-22T00:23:49;19.07;;;9.40;;
7169;SDS011;3626;42.656;23.312;2023-04-22T00:23:56;17.82;;;9.46;;
7169;SDS011;3626;42.656;23.312;2023-04-22T00:24:01;18.35;;;9.50;;
7169;SDS011;3626;42.656;23.312;2023-04-22T00:24:07;19.38;;;9.60;;
7169;SDS011;3626;42.656;23.312;2023-04-22T00:24:13;18.80;;;9.60;;
7169;SDS011;3626;42.656;23.312;2023-04-22T00:24:19;19.60;;;9.50;;
7169;SDS011;3626;42.656;23.312;2023-04-22T00:24:25;20.80;;;9.50;;
7169;SDS011;3626;42.656;23.312;2023-04-22T00:24:31;20.95;;;9.40;;
7169;SDS011;3626;42.656;23.312;2023-04-22T00:24:37;20.05;;;9.10;;
7169;SDS011;3626;42.656;23.312;2023-04-22T00:24:43;19.67;;;9.07;;
7169;SDS011;3626;42.656;23.312;2023-04-22T00:24:48;19.73;;;9.05;;
7169;SDS011;3626;42.656;23.312;2023-04-22T00:24:54;20.10;;;9.00;;
7169;SDS011;3626;42.656;23.312;2023-04-22T00:25:00;20.65;;;8.98;;
7169;SDS011;3626;42.656;23.312;2023-04-22T00:25:06;19.40;;;8.98;;
7169;SDS011;3626;42.656;23.312;2023-04-22T00:25:12;19.60;;;9.12;;
7169;SDS011;3626;42.656;23.312;2023-04-22T00:25:18;18.92;;;9.20;;
7169;SDS011;3626;42.656;23.312;2023-04-22T00:25:27;16.17;;;9.10;;
7169;SDS011;3626;42.656;23.312;2023-04-22T00:25:32;16.28;;;9.30;;
7169;SDS011;3626;42.656;23.312;2023-04-22T00:25:38;16.45;;;9.38;;
7169;SDS011;3626;42.656;23.312;2023-04-22T00:25:47;16.07;;;9.30;;
7169;SDS011;3626;42.656;23.312;2023-04-22T00:25:53;15.77;;;9.38;;
7169;SDS011;3626;42.656;23.312;2023-04-22T00:25:59;15.20;;;9.40;;
7169;SDS011;3626;42.656;23.312;2023-04-22T00:26:05;15.80;;;9.38;;
7169;SDS011;3626;42.656;23.312;2023-04-22T00:26:11;15.23;;;9.13;;
7169;SDS011;3626;42.656;23.312;2023-04-22T00:26:18;15.28;;;9.16;;
7169;SDS011;3626;42.656;23.312;2023-04-22T00:26:24;15.13;;;9.10;;
7169;SDS011;3626;42.656;23.312;2023-04-22T00:26:30;15.73;;;9.20;;
7169;SDS011;3626;42.656;23.312;2023-04-22T00:26:36;15.67;;;9.13;;
7169;SDS011;3626;42.656;23.312;2023-04-22T00:26:42;15.32;;;9.02;;
7169;SDS011;3626;42.656;23.312;2023-04-22T00:26:47;15.75;;;9.10;;
7169;SDS011;3626;42.656;23.312;2023-04-22T00:26:53;16.90;;;9.00;;
7169;SDS011;3626;42.656;23.312;2023-04-22T00:26:59;16.63;;;8.90;;
7169;SDS011;3626;42.656;23.312;2023-04-22T00:27:07;16.60;;;9.00;;
7169;SDS011;3626;42.656;23.312;2023-04-22T00:27:12;16.73;;;9.00;;
7169;SDS011;3626;42.656;23.312;2023-04-22T00:27:18;17.00;;;9.00;;
7169;SDS011;3626;42.656;23.312;2023-04-22T00:27:24;16.92;;;9.07;;
7169;SDS011;3626;42.656;23.312;2023-04-22T00:27:30;16.03;;;8.93;;
7169;SDS011;3626;42.656;23.312;2023-04-22T00:27:36;16.20;;;8.93;;
7169;SDS011;3626;42.656;23.312;2023-04-22T00:27:41;16.90;;;9.05;;
7169;SDS011;3626;42.656;23.312;2023-04-22T00:27:48;18.50;;;8.90;;
7169;SDS011;3626;42.656;23.312;2023-04-22T00:27:54;18.02;;;8.98;;
7169;SDS011;3626;42.656;23.312;2023-04-22T00:28:00;17.77;;;8.98;;
7169;SDS011;3626;42.656;23.312;2023-04-22T00:28:06;17.43;;;9.10;;
7169;SDS011;3626;42.656;23.312;2023-04-22T00:28:12;17.77;;;9.10;;
7169;SDS011;3626;42.656;23.312;2023-04-22T00:28:18;17.58;;;9.10;;
7169;SDS011;3626;42.656;23.312;2023-04-22T00:28:23;18.00;;;9.13;;
7169;SDS011;3626;42.656;23.312;2023-04-22T00:28:30;19.04;;;9.12;;
7169;SDS011;3626;42.656;23.312;2023-04-22T00:28:37;20.03;;;9.00;;
7169;SDS011;3626;42.656;23.312;2023-04-22T00:28:42;19.73;;;9.05;;
7169;SDS011;3626;42.656;23.312;2023-04-22T00:28:48;18.23;;;9.20;;
7169;SDS011;3626;42.656;23.312;2023-04-22T00:28:54;17.98;;;9.07;;
7169;SDS011;3626;42.656;23.312;2023-04-22T00:29:00;17.88;;;9.10;;
7169;SDS011;3626;42.656;23.312;2023-04-22T00:29:06;17.70;;;9.00;;
7169;SDS011;3626;42.656;23.312;2023-04-22T00:29:11;17.98;;;9.30;;
7169;SDS011;3626;42.656;23.312;2023-04-22T00:29:17;18.17;;;9.40;;
7169;SDS011;3626;42.656;23.312;2023-04-22T00:29:23;17.85;;;9.25;;
7169;SDS011;3626;42.656;23.312;2023-04-22T00:29:29;17.20;;;9.25;;
7169;SDS011;3626;42.656;23.312;2023-04-22T00:29:35;16.50;;;9.48;;
7169;SDS011;3626;42.656;23.312;2023-04-22T00:29:41;17.35;;;9.50;;
7169;SDS011;3626;42.656;23.312;2023-04-22T00:29:47;17.20;;;9.50;;
7169;SDS011;3626;42.656;23.312;2023-04-22T00:29:52;17.60;;;9.52;;
7169;SDS011;3626;42.656;23.312;2023-04-22T00:29:58;17.67;;;9.63;;
7169;SDS011;3626;42.656;23.312;2023-04-22T00:30:05;18.08;;;9.60;;
7169;SDS011;3626;42.656;23.312;2023-04-22T00:30:13;18.13;;;9.43;;
7169;SDS011;3626;42.656;23.312;2023-04-22T00:30:19;18.33;;;9.40;;
7169;SDS011;3626;42.656;23.312;2023-04-22T00:30:27;17.87;;;9.30;;
7169;SDS011;3626;42.656;23.312;2023-04-22T00:30:33;17.42;;;9.20;;
7169;SDS011;3626;42.656;23.312;2023-04-22T00:30:39;16.57;;;9.20;;
7169;SDS011;3626;42.656;23.312;2023-04-22T00:30:45;16.50;;;9.30;;
7169;SDS011;3626;42.656;23.312;2023-04-22T00:30:50;16.00;;;9.30;;
7169;SDS011;3626;42.656;23.312;2023-04-22T00:30:56;16.05;;;9.32;;
7169;SDS011;3626;42.656;23.312;2023-04-22T00:31:03;16.93;;;9.37;;
7169;SDS011;3626;42.656;23.312;2023-04-22T00:31:09;16.03;;;9.27;;
7169;SDS011;3626;42.656;23.312;2023-04-22T00:31:15;16.42;;;9.43;;
7169;SDS011;3626;42.656;23.312;2023-04-22T00:31:21;15.98;;;9.43;;
7169;SDS011;3626;42.656;23.312;2023-04-22T00:31:27;16.20;;;9.55;;
7169;SDS011;3626;42.656;23.312;2023-04-22T00:31:34;17.10;;;9.70;;
7169;SDS011;3626;42.656;23.312;2023-04-22T00:31:40;16.83;;;9.60;;
7169;SDS011;3626;42.656;23.312;2023-04-22T00:31:46;16.95;;;9.43;;
7169;SDS011;3626;42.656;23.312;2023-04-22T00:31:52;18.57;;;9.80;;
7169;SDS011;3626;42.656;23.312;2023-04-22T00:31:57;20.33;;;9.88;;
7169;SDS011;3626;42.656;23.312;2023-04-22T00:32:03;20.25;;;9.88;;
7169;SDS011;3626;42.656;23.312;2023-04-22T00:32:09;20.73;;;9.80;;
7169;SDS011;3626;42.656;23.312;2023-04-22T00:32:15;20.95;;;9.85;;
7169;SDS011;3626;42.656;23.312;2023-04-22T00:32:21;21.08;;;9.93;;
7169;SDS011;3626;42.656;23.312;2023-04-22T00:32:27;21.80;;;10.25;;
7169;SDS011;3626;42.656;23.312;2023-04-22T00:32:33;21.30;;;10.07;;
7169;SDS011;3626;42.656;23.312;2023-04-22T00:32:39;20.98;;;9.82;;
7169;SDS011;3626;42.656;23.312;2023-04-22T00:32:45;21.25;;;9.98;;
7169;SDS011;3626;42.656;23.312;2023-04-22T00:32:53;18.92;;;9.58;;
7169;SDS011;3626;42.656;23.312;2023-04-22T00:32:58;17.20;;;9.60;;
7169;SDS011;3626;42.656;23.312;2023-04-22T00:33:04;16.90;;;9.63;;
7169;SDS011;3626;42.656;23.312;2023-04-22T00:33:10;16.55;;;9.65;;
7169;SDS011;3626;42.656;23.312;2023-04-22T00:33:16;16.67;;;9.40;;
7169;SDS011;3626;42.656;23.312;2023-04-22T00:33:22;16.85;;;9.50;;
7169;SDS011;3626;42.656;23.312;2023-04-22T00:33:27;16.47;;;9.20;;
7169;SDS011;3626;42.656;23.312;2023-04-22T00:33:33;16.15;;;9.13;;
7169;SDS011;3626;42.656;23.312;2023-04-22T00:33:39;16.85;;;9.52;;
7169;SDS011;3626;42.656;23.312;2023-04-22T00:33:45;16.67;;;9.60;;
7169;SDS011;3626;42.656;23.312;2023-04-22T00:33:52;16.96;;;9.60;;
7169;SDS011;3626;42.656;23.312;2023-04-22T00:33:57;16.33;;;9.38;;
7169;SDS011;3626;42.656;23.312;2023-04-22T00:34:03;15.73;;;9.20;;
7169;SDS011;3626;42.656;23.312;2023-04-22T00:34:09;16.13;;;9.25;;
7169;SDS011;3626;42.656;23.312;2023-04-22T00:34:15;16.15;;;9.43;;
7169;SDS011;3626;42.656;23.312;2023-04-22T00:34:21;15.80;;;9.20;;
7169;SDS011;3626;42.656;23.312;2023-04-22T00:34:27;15.80;;;9.33;;
7169;SDS011;3626;42.656;23.312;2023-04-22T00:34:33;15.77;;;9.43;;
7169;SDS011;3626;42.656;23.312;2023-04-22T00:34:39;15.82;;;9.18;;
7169;SDS011;3626;42.656;23.312;2023-04-22T00:34:45;15.98;;;9.20;;
7169;SDS011;3626;42.656;23.312;2023-04-22T00:34:50;15.83;;;9.23;;
7169;SDS011;3626;42.656;23.312;2023-04-22T00:34:56;16.70;;;9.50;;
7169;SDS011;3626;42.656;23.312;2023-04-22T00:35:02;17.33;;;9.60;;
7169;SDS011;3626;42.656;23.312;2023-04-22T00:35:08;17.15;;;9.70;;
7169;SDS011;3626;42.656;23.312;2023-04-22T00:35:14;17.08;;;9.63;;
7169;SDS011;3626;42.656;23.312;2023-04-22T00:35:21;17.88;;;9.78;;
7169;SDS011;3626;42.656;23.312;2023-04-22T00:35:27;18.25;;;9.88;;
7169;SDS011;3626;42.656;23.312;2023-04-22T00:35:32;18.42;;;10.00;;
7169;SDS011;3626;42.656;23.312;2023-04-22T00:35:38;19.33;;;10.23;;
7169;SDS011;3626;42.656;23.312;2023-04-22T00:35:44;18.77;;;10.13;;
7169;SDS011;3626;42.656;23.312;2023-04-22T00:35:51;18.20;;;10.03;;
7169;SDS011;3626;42.656;23.312;2023-04-22T00:35:58;17.92;;;9.90;;
7169;SDS011;3626;42.656;23.312;2023-04-22T00:36:04;18.03;;;9.80;;
7169;SDS011;3626;42.656;23.312;2023-04-22T00:36:10;17.98;;;9.78;;
7169;SDS011;3626;42.656;23.312;2023-04-22T00:36:16;17.10;;;9.60;;
7169;SDS011;3626;42.656;23.312;2023-04-22T00:36:24;16.42;;;9.35;;
7169;SDS011;3626;42.656;23.312;2023-04-22T00:36:30;16.65;;;9.23;;
7169;SDS011;3626;42.656;23.312;2023-04-22T00:36:36;16.23;;;9.23;;
7169;SDS011;3626;42.656;23.312;2023-04-22T00:36:43;16.43;;;9.37;;
7169;SDS011;3626;42.656;23.312;2023-04-22T00:36:48;17.35;;;9.40;;
7169;SDS011;3626;42.656;23.312;2023-04-22T00:36:55;17.70;;;9.50;;
7169;SDS011;3626;42.656;23.312;2023-04-22T00:37:01;19.00;;;9.60;;